Compton, Maryland
Current Conditions -  °F | °C
As of 4:35 PM on Friday 28 Nov 2014 (Local Time) from K2W6 Reporting Station
Clear Clear  
Wind Chill: 32°   Ceiling: Unl
Heat Index: 36°   Visibility: 10mi
Dew Point: 18°   Wind: 5mph
Humidity: 48%   Direction: 280°W
Pressure: 30.3"   Gusts: NA
Location:  38.27°N, 76.69°W
Report Text: K2W6 282135Z AUTO 28004KT 10SM CLR 02/M08 A3030 RMK AO1
Loading
Personal Weather Stations






























Interactive Weather Map New forecast layout! Learn more

10-Day Weather Forecast

Advertisements
Track Severe Weather on mobile